createdAt,value
2022-09-02T00:00:56.157Z,23.65
2022-09-02T00:05:50.303Z,21.55
2022-09-02T00:10:46.626Z,15.02
2022-09-02T00:15:40.230Z,10.45
2022-09-02T00:20:34.136Z,19.10
2022-09-02T00:25:28.894Z,14.57
2022-09-02T00:30:22.739Z,13.77
2022-09-02T00:35:16.021Z,8.27
2022-09-02T00:40:13.391Z,8.98
2022-09-02T00:45:08.349Z,8.10
2022-09-02T00:50:07.570Z,12.13
2022-09-02T00:55:06.147Z,16.15
2022-09-02T01:00:08.309Z,11.15
2022-09-02T01:05:04.693Z,16.95
2022-09-02T01:09:58.423Z,15.63
2022-09-02T01:14:52.532Z,14.63
2022-09-02T01:19:49.684Z,13.40
2022-09-02T01:24:43.762Z,10.03
2022-09-02T01:29:38.002Z,6.32
2022-09-02T01:34:32.067Z,8.35
2022-09-02T01:39:25.510Z,6.80
2022-09-02T01:44:18.841Z,6.22
2022-09-02T01:49:14.616Z,5.28
2022-09-02T01:54:12.243Z,10.18
2022-09-02T01:59:08.499Z,6.97
2022-09-02T02:04:03.161Z,11.38
2022-09-02T02:08:58.549Z,11.90
2022-09-02T02:13:53.112Z,4.70
2022-09-02T02:18:48.820Z,13.90
2022-09-02T02:23:41.428Z,6.00
2022-09-02T02:28:35.124Z,13.75
2022-09-02T02:33:31.921Z,12.45
2022-09-02T02:38:31.287Z,12.43
2022-09-02T02:43:25.587Z,14.32
2022-09-02T02:48:19.493Z,15.30
2022-09-02T02:53:14.121Z,20.00
2022-09-02T02:58:07.672Z,16.83
2022-09-02T03:03:23.438Z,19.80
2022-09-02T03:08:21.178Z,21.00
2022-09-02T03:13:17.858Z,12.57
2022-09-02T03:18:11.740Z,9.50
2022-09-02T03:23:05.213Z,7.72
2022-09-02T03:27:59.863Z,9.52
2022-09-02T03:32:54.429Z,13.73
2022-09-02T03:37:48.725Z,11.70
2022-09-02T03:42:44.115Z,9.80
2022-09-02T03:47:45.452Z,17.67
2022-09-02T03:52:38.833Z,8.93
2022-09-02T03:57:32.573Z,12.57
2022-09-02T04:02:27.792Z,10.43
2022-09-02T04:07:21.596Z,11.85
2022-09-02T04:12:15.833Z,10.65
2022-09-02T04:17:09.205Z,7.97
2022-09-02T04:22:03.415Z,12.85
2022-09-02T04:27:03.870Z,8.38
2022-09-02T04:32:03.195Z,13.55
2022-09-02T04:36:56.996Z,9.35
2022-09-02T04:41:51.480Z,12.02
2022-09-02T04:46:46.754Z,10.43
2022-09-02T04:51:44.468Z,7.40
2022-09-02T04:56:38.923Z,9.90
2022-09-02T05:01:36.280Z,8.05
2022-09-02T05:06:41.938Z,9.30
2022-09-02T05:11:40.467Z,9.00
2022-09-02T05:16:36.946Z,10.00
2022-09-02T05:21:34.428Z,9.85
2022-09-02T05:26:28.384Z,12.40
2022-09-02T05:31:27.249Z,8.88
2022-09-02T05:36:22.839Z,8.77
2022-09-02T05:41:23.374Z,13.57
2022-09-02T05:46:22.873Z,8.65
2022-09-02T05:51:17.685Z,8.93
2022-09-02T05:56:10.877Z,10.45
2022-09-02T06:01:11.424Z,7.72
2022-09-02T06:06:06.883Z,8.88
2022-09-02T06:11:03.870Z,16.00
2022-09-02T06:15:58.635Z,13.35
2022-09-02T06:20:56.220Z,15.20
2022-09-02T06:25:54.131Z,12.35
2022-09-02T06:30:49.561Z,11.18
2022-09-02T06:35:47.478Z,16.33
2022-09-02T06:40:52.841Z,10.93
2022-09-02T06:45:57.782Z,9.95
2022-09-02T06:50:52.274Z,8.15
2022-09-02T06:55:46.845Z,10.43
2022-09-02T07:00:40.390Z,8.20
2022-09-02T07:05:35.142Z,8.30
2022-09-02T07:10:28.504Z,10.82
2022-09-02T07:15:23.088Z,10.55
2022-09-02T07:20:18.039Z,9.15
2022-09-02T07:25:19.102Z,12.55
2022-09-02T07:30:15.754Z,12.63
2022-09-02T07:35:11.832Z,7.90
2022-09-02T07:40:07.217Z,8.35
2022-09-02T07:45:01.522Z,5.18
2022-09-02T07:55:14.502Z,6.47
2022-09-02T08:00:14.552Z,6.85
2022-09-02T08:05:08.435Z,14.35
2022-09-02T08:10:01.575Z,9.35
2022-09-02T08:14:56.672Z,5.82
2022-09-02T08:19:49.660Z,3.97
2022-09-02T08:24:44.113Z,3.33
2022-09-02T08:29:37.977Z,5.18
2022-09-02T08:34:31.960Z,4.78
2022-09-02T08:39:26.564Z,4.85
2022-09-02T08:44:23.925Z,5.88
2022-09-02T08:49:25.932Z,5.15
2022-09-02T08:54:43.130Z,1.48
2022-09-02T08:59:37.694Z,4.57
2022-09-02T09:05:00.038Z,4.00
2022-09-02T09:10:02.523Z,3.78
2022-09-02T09:14:59.295Z,3.58
2022-09-02T09:19:59.512Z,6.72
2022-09-02T09:24:53.657Z,3.10
2022-09-02T09:29:46.775Z,6.80
2022-09-02T09:35:11.352Z,2.95
2022-09-02T09:40:22.913Z,10.60
2022-09-02T09:45:22.551Z,2.00
2022-09-02T09:50:20.330Z,6.28
2022-09-02T09:55:24.914Z,4.20
2022-09-02T10:00:21.687Z,2.03
2022-09-02T10:05:25.883Z,3.75
2022-09-02T10:10:23.481Z,2.20
2022-09-02T10:15:42.760Z,4.40
2022-09-02T10:21:14.782Z,4.63
2022-09-02T10:26:22.205Z,2.15
2022-09-02T10:31:31.904Z,2.15
2022-09-02T10:36:53.101Z,1.30
2022-09-02T10:41:48.641Z,2.80
2022-09-02T10:47:06.126Z,1.88
2022-09-02T10:52:08.229Z,1.52
2022-09-02T10:57:27.440Z,1.20
2022-09-02T11:02:45.172Z,1.10
2022-09-02T11:07:46.721Z,1.15
2022-09-02T11:12:43.064Z,3.88
2022-09-02T11:17:52.575Z,2.40
2022-09-02T11:22:54.657Z,3.38
2022-09-02T11:28:11.039Z,2.78
2022-09-02T11:33:29.528Z,1.63
2022-09-02T11:38:45.015Z,2.40
2022-09-02T11:43:53.467Z,0.87
2022-09-02T11:49:09.038Z,1.45
2022-09-02T11:54:06.646Z,3.08
2022-09-02T11:58:59.343Z,2.72
2022-09-02T12:09:52.025Z,2.27
2022-09-02T12:14:49.567Z,3.38
2022-09-02T12:19:45.561Z,4.82
2022-09-02T12:25:01.110Z,1.80
2022-09-02T12:29:56.373Z,3.17
2022-09-02T12:34:54.582Z,3.05
2022-09-02T12:39:54.136Z,5.00
2022-09-02T12:44:54.555Z,3.97
2022-09-02T12:50:12.053Z,3.35
2022-09-02T12:55:26.005Z,2.40
2022-09-02T13:00:52.629Z,2.72
2022-09-02T13:05:57.369Z,5.80
2022-09-02T13:10:57.114Z,2.28
2022-09-02T13:16:15.621Z,4.05
2022-09-02T13:21:45.468Z,4.50
2022-09-02T13:26:58.820Z,3.65
2022-09-02T13:32:20.387Z,2.97
2022-09-02T13:37:45.555Z,1.80
2022-09-02T13:42:40.489Z,3.63
2022-09-02T13:47:34.390Z,4.03
2022-09-02T13:53:12.335Z,2.15
2022-09-02T13:57:46.214Z,5.77
2022-09-02T14:02:38.835Z,6.53
2022-09-02T14:07:44.603Z,1.63
2022-09-02T14:12:40.215Z,10.67
2022-09-02T14:17:35.481Z,4.95
2022-09-02T14:22:30.453Z,1.38
2022-09-02T14:27:24.469Z,2.85
2022-09-02T14:32:29.784Z,6.13
2022-09-02T14:37:28.919Z,2.35
2022-09-02T14:42:22.939Z,3.13
2022-09-02T14:47:20.674Z,3.58
2022-09-02T14:52:23.364Z,2.90
2022-09-02T14:57:24.774Z,4.03
2022-09-02T15:02:29.626Z,7.30
2022-09-02T15:07:24.257Z,5.25
2022-09-02T15:12:39.448Z,7.07
2022-09-02T15:17:32.819Z,6.97
2022-09-02T15:22:27.386Z,5.55
2022-09-02T15:27:21.953Z,5.20
2022-09-02T15:32:15.091Z,1.50
2022-09-02T15:37:12.984Z,1.33
2022-09-02T15:42:07.575Z,4.55
2022-09-02T15:47:01.561Z,6.82
2022-09-02T15:51:55.235Z,2.25
2022-09-02T15:56:50.488Z,5.05
2022-09-02T16:01:48.983Z,2.20
2022-09-02T16:07:02.529Z,1.95
2022-09-02T16:11:56.912Z,4.32
2022-09-02T16:16:51.363Z,7.45
2022-09-02T16:21:45.752Z,5.70
2022-09-02T16:26:40.632Z,4.40
2022-09-02T16:31:35.891Z,2.22
2022-09-02T16:36:33.300Z,5.18
2022-09-02T16:41:39.737Z,3.25
2022-09-02T16:46:34.099Z,6.05
2022-09-02T16:51:28.915Z,6.03
2022-09-02T16:56:22.259Z,6.00
2022-09-02T17:01:16.166Z,10.00
2022-09-02T17:06:10.142Z,5.07
2022-09-02T17:11:23.629Z,14.07
2022-09-02T17:16:18.063Z,2.67
2022-09-02T17:21:25.719Z,3.22
2022-09-02T17:26:20.601Z,8.82
2022-09-02T17:31:23.096Z,6.95
2022-09-02T17:36:17.691Z,3.95
2022-09-02T17:41:30.070Z,6.57
2022-09-02T17:46:23.720Z,2.50
2022-09-02T17:51:19.776Z,4.75
2022-09-02T17:56:32.360Z,3.13
2022-09-02T18:01:29.618Z,6.28
2022-09-02T18:06:29.465Z,6.18
2022-09-02T18:11:23.544Z,5.68
2022-09-02T18:16:36.979Z,7.95
2022-09-02T18:21:39.701Z,5.85
2022-09-02T18:26:45.682Z,4.90
2022-09-02T18:31:54.569Z,6.10
2022-09-02T18:36:56.956Z,4.68
2022-09-02T18:42:40.631Z,5.30
2022-09-02T18:47:44.165Z,3.17
2022-09-02T18:52:57.715Z,6.28
2022-09-02T18:58:18.271Z,5.25
2022-09-02T19:03:33.652Z,2.53
2022-09-02T19:08:39.000Z,4.90
2022-09-02T19:13:44.147Z,3.30
2022-09-02T19:18:37.955Z,6.70
2022-09-02T19:23:31.354Z,5.32
2022-09-02T19:28:25.526Z,3.03
2022-09-02T19:33:19.994Z,5.10
2022-09-02T19:38:17.044Z,7.05
2022-09-02T19:43:13.814Z,5.35
2022-09-02T19:48:11.260Z,3.22
2022-09-02T19:53:05.594Z,3.60
2022-09-02T19:58:01.119Z,4.65
2022-09-02T20:02:55.615Z,2.85
2022-09-02T20:07:50.996Z,6.40
2022-09-02T20:12:45.203Z,7.00
2022-09-02T20:17:38.995Z,7.60
2022-09-02T20:22:32.627Z,3.80
2022-09-02T20:27:43.797Z,3.50
2022-09-02T20:32:58.939Z,3.83
2022-09-02T20:37:58.070Z,6.72
2022-09-02T20:42:53.880Z,7.88
2022-09-02T20:48:01.970Z,3.05
2022-09-02T20:53:18.936Z,4.13
2022-09-02T20:59:03.163Z,5.47
2022-09-02T21:04:14.758Z,3.97
2022-09-02T21:09:20.595Z,5.22
2022-09-02T21:14:24.072Z,3.25
2022-09-02T21:19:37.110Z,8.93
2022-09-02T21:24:44.851Z,4.45
2022-09-02T21:29:50.514Z,4.63
2022-09-02T21:35:01.247Z,8.90
2022-09-02T21:39:59.772Z,5.00
2022-09-02T21:45:04.569Z,4.10
2022-09-02T21:50:19.926Z,6.32
2022-09-02T21:55:33.472Z,5.18
2022-09-02T22:00:27.339Z,4.53
2022-09-02T22:05:52.089Z,5.70
2022-09-02T22:10:59.942Z,5.60
2022-09-02T22:16:14.353Z,11.47
2022-09-02T22:21:47.375Z,6.88
2022-09-02T22:27:09.716Z,6.43
2022-09-02T22:32:05.888Z,10.02
2022-09-02T22:37:05.852Z,6.43
2022-09-02T22:42:38.773Z,15.15
2022-09-02T22:47:53.558Z,12.18
2022-09-02T22:52:50.274Z,10.77
2022-09-02T22:57:57.399Z,6.22
2022-09-02T23:03:16.762Z,13.82
2022-09-02T23:08:11.256Z,11.07
2022-09-02T23:13:14.081Z,8.73
2022-09-02T23:18:22.113Z,8.82
2022-09-02T23:23:40.020Z,11.25
2022-09-02T23:28:46.487Z,9.02
2022-09-02T23:33:50.361Z,9.05
2022-09-02T23:38:52.852Z,9.45
2022-09-02T23:43:47.186Z,17.70
2022-09-02T23:48:44.310Z,15.98
2022-09-02T23:53:46.752Z,10.93
2022-09-02T23:58:53.091Z,15.30
